Time;durP1;ratioP1;P1;durP2;ratioP2;P2;SDS_P1;SDS_P2;PMS_P1;PMS_P2;Temp;Humidity;BMP_temperature;BMP_pressure;BME280_temperature;BME280_humidity;BME280_pressure;Samples;Min_cycle;Max_cycle;Signal;HPM_P1;HPM_P2
2022/07/22 00:01:39;;;;;;;0.70;0.10;;;21.90;99.90;;;;;;5071229;28;20835;-72
2022/07/22 00:04:07;;;;;;;0.70;0.13;;;21.90;99.90;;;;;;5059790;28;20493;-72
2022/07/22 00:06:35;;;;;;;0.70;0.20;;;21.80;99.90;;;;;;5050852;28;20473;-71
2022/07/22 00:09:04;;;;;;;0.70;0.20;;;21.80;99.90;;;;;;5050910;28;20481;-74
2022/07/22 00:11:32;;;;;;;0.80;0.40;;;21.70;99.90;;;;;;5051191;28;20434;-72
2022/07/22 00:14:00;;;;;;;0.70;0.10;;;21.70;99.90;;;;;;5065143;28;20449;-72
2022/07/22 00:16:29;;;;;;;0.70;0.10;;;21.60;99.90;;;;;;5071046;28;20501;-74
2022/07/22 00:18:58;;;;;;;0.70;0.10;;;21.60;99.90;;;;;;5070754;28;20434;-72
2022/07/22 00:21:26;;;;;;;0.70;0.20;;;21.60;99.90;;;;;;5070755;28;20803;-73
2022/07/22 00:23:54;;;;;;;0.70;0.10;;;21.60;99.90;;;;;;5071112;28;20448;-74
2022/07/22 00:26:22;;;;;;;0.70;0.20;;;21.60;99.90;;;;;;5070238;28;20546;-73
2022/07/22 00:28:50;;;;;;;0.70;0.10;;;21.60;99.90;;;;;;5063103;28;20465;-74
2022/07/22 00:31:19;;;;;;;0.70;0.20;;;21.60;99.90;;;;;;5072205;28;20650;-71
2022/07/22 00:33:48;;;;;;;0.70;0.10;;;21.50;99.90;;;;;;5073839;28;20448;-73
2022/07/22 00:36:16;;;;;;;0.70;0.10;;;21.60;99.90;;;;;;5074044;28;20968;-74
2022/07/22 00:38:45;;;;;;;0.70;0.20;;;21.60;99.90;;;;;;5073268;28;20940;-74
2022/07/22 00:41:12;;;;;;;1.07;0.97;;;21.60;99.90;;;;;;5067914;28;20453;-71
2022/07/22 00:43:52;;;;;;;0.70;0.30;;;21.60;99.90;;;;;;5054627;28;20865;-71
2022/07/22 00:46:20;;;;;;;0.70;0.10;;;21.60;99.90;;;;;;5062987;28;20469;-74
2022/07/22 00:48:51;;;;;;;0.70;0.10;;;21.60;99.90;;;;;;5074734;28;20500;-73
2022/07/22 00:51:21;;;;;;;0.70;0.30;;;21.60;99.90;;;;;;5074872;28;21006;-73
2022/07/22 00:53:49;;;;;;;0.70;0.10;;;21.60;99.90;;;;;;5074077;28;20453;-75
2022/07/22 00:56:18;;;;;;;0.80;0.33;;;21.50;99.90;;;;;;5073945;28;20806;-72
2022/07/22 00:58:47;;;;;;;0.70;0.30;;;21.40;99.90;;;;;;5073972;28;20441;-73
2022/07/22 01:01:16;;;;;;;0.70;0.10;;;21.40;99.90;;;;;;5073500;28;20464;-71
2022/07/22 01:03:44;;;;;;;0.80;0.60;;;21.40;99.90;;;;;;5074170;28;20537;-73
2022/07/22 01:06:18;;;;;;;0.70;0.10;;;21.30;99.90;;;;;;5074082;28;20460;-74
2022/07/22 01:08:46;;;;;;;0.70;0.10;;;21.30;99.90;;;;;;5073228;28;20453;-73
2022/07/22 01:11:15;;;;;;;0.70;0.10;;;21.30;99.90;;;;;;5073796;28;20441;-73
2022/07/22 01:13:45;;;;;;;0.70;0.10;;;21.30;99.90;;;;;;5071159;28;20457;-71
2022/07/22 01:16:15;;;;;;;0.70;0.20;;;21.30;99.90;;;;;;5053811;28;20566;-72
2022/07/22 01:18:43;;;;;;;0.70;0.20;;;21.20;99.90;;;;;;5051360;28;20870;-74
2022/07/22 01:21:13;;;;;;;0.70;0.20;;;21.30;99.90;;;;;;5051967;28;20549;-74
2022/07/22 01:23:41;;;;;;;0.70;0.20;;;21.20;99.90;;;;;;5051174;28;20808;-74
2022/07/22 01:26:09;;;;;;;1.93;0.90;;;21.20;99.90;;;;;;5051520;28;20467;-74
2022/07/22 01:28:37;;;;;;;0.70;0.10;;;21.20;99.90;;;;;;5059339;28;21032;-74
2022/07/22 01:31:05;;;;;;;0.70;0.10;;;21.20;99.90;;;;;;5071513;28;20477;-72
2022/07/22 01:33:34;;;;;;;0.70;0.10;;;21.10;99.90;;;;;;5057047;28;21022;-75
2022/07/22 01:36:02;;;;;;;0.70;0.20;;;21.20;99.90;;;;;;5053222;28;20439;-74
2022/07/22 01:38:31;;;;;;;0.70;0.13;;;21.10;99.90;;;;;;5052790;28;20446;-73
2022/07/22 01:40:59;;;;;;;0.70;0.10;;;21.10;99.90;;;;;;5054554;28;20450;-72
2022/07/22 01:43:27;;;;;;;0.70;0.20;;;19.20;99.90;;;;;;5053028;28;20937;-72
2022/07/22 01:45:56;;;;;;;0.70;0.10;;;21.20;99.90;;;;;;5053350;28;20459;-72
2022/07/22 01:48:24;;;;;;;0.70;0.20;;;21.20;99.90;;;;;;5053134;28;20521;-72
2022/07/22 01:50:52;;;;;;;0.70;0.10;;;21.20;99.90;;;;;;5053343;28;20668;-73
2022/07/22 01:53:20;;;;;;;0.70;0.10;;;21.20;99.90;;;;;;5053082;28;20439;-73
2022/07/22 01:55:50;;;;;;;0.70;0.10;;;21.20;99.90;;;;;;5063961;28;21085;-72
2022/07/22 01:58:17;;;;;;;0.70;0.10;;;21.20;99.90;;;;;;5072778;28;20529;-72
2022/07/22 02:00:45;;;;;;;0.70;0.10;;;21.20;99.90;;;;;;5072982;28;20448;-73
2022/07/22 02:03:14;;;;;;;0.70;0.10;;;21.20;99.90;;;;;;5072731;28;20500;-74
2022/07/22 02:05:42;;;;;;;0.70;0.20;;;21.20;99.90;;;;;;5072733;28;20952;-73
2022/07/22 02:08:12;;;;;;;0.67;0.10;;;21.20;99.90;;;;;;5072327;28;20466;-73
2022/07/22 02:10:40;;;;;;;0.70;0.10;;;21.20;99.90;;;;;;5054422;28;20474;-73
2022/07/22 02:13:09;;;;;;;0.70;0.13;;;21.20;99.90;;;;;;5052736;28;20447;-74
2022/07/22 02:15:37;;;;;;;0.70;0.20;;;21.20;99.90;;;;;;5052771;28;20451;-73
2022/07/22 02:18:11;;;;;;;0.70;0.10;;;21.20;99.90;;;;;;5052133;28;20477;-73
2022/07/22 02:20:39;;;;;;;0.70;0.10;;;21.20;99.90;;;;;;5052671;28;20452;-71
2022/07/22 02:23:08;;;;;;;0.67;0.10;;;21.20;99.90;;;;;;5052390;28;20459;-72
2022/07/22 02:25:36;;;;;;;0.70;0.20;;;21.10;99.90;;;;;;5052581;28;20825;-73
2022/07/22 02:28:04;;;;;;;0.70;0.10;;;21.00;99.90;;;;;;5061990;28;20461;-72
2022/07/22 02:30:34;;;;;;;0.70;0.17;;;21.00;99.90;;;;;;5078438;28;20488;-73
2022/07/22 02:33:02;;;;;;;0.70;0.10;;;21.00;99.90;;;;;;5081808;28;20438;-73
2022/07/22 02:35:30;;;;;;;0.60;0.20;;;20.90;99.90;;;;;;5073682;28;20446;-72
2022/07/22 02:37:57;;;;;;;0.70;0.10;;;20.00;99.90;;;;;;5070411;28;20828;-74
2022/07/22 02:40:25;;;;;;;0.70;0.10;;;21.00;99.90;;;;;;5073104;28;20434;-74
2022/07/22 02:42:53;;;;;;;0.70;0.10;;;20.90;99.90;;;;;;5072289;28;20480;-73
2022/07/22 02:45:21;;;;;;;0.70;0.10;;;20.90;99.90;;;;;;5071923;28;20456;-73
2022/07/22 02:47:52;;;;;;;0.70;0.10;;;20.80;99.90;;;;;;5072528;28;20461;-73
2022/07/22 02:50:23;;;;;;;0.70;0.10;;;20.80;99.90;;;;;;5072309;28;20513;-71
2022/07/22 02:52:50;;;;;;;0.70;0.10;;;20.80;99.90;;;;;;5052291;28;20451;-71
2022/07/22 02:55:19;;;;;;;0.70;0.10;;;20.80;99.90;;;;;;5051940;28;20457;-73
2022/07/22 02:57:47;;;;;;;0.70;0.10;;;20.80;99.90;;;;;;5052195;28;20561;-74
2022/07/22 03:00:15;;;;;;;0.70;0.23;;;20.80;99.90;;;;;;5052019;28;20435;-72
2022/07/22 03:02:43;;;;;;;0.70;0.10;;;20.80;99.90;;;;;;5052333;28;20960;-73
2022/07/22 03:05:13;;;;;;;0.90;0.50;;;20.70;99.90;;;;;;5056748;28;20445;-74
2022/07/22 03:07:41;;;;;;;0.70;0.10;;;20.70;99.90;;;;;;5071977;28;20832;-74
2022/07/22 03:10:09;;;;;;;0.70;0.20;;;20.70;99.90;;;;;;5071820;28;20477;-71
2022/07/22 03:12:37;;;;;;;0.70;0.10;;;20.70;99.90;;;;;;5072130;28;20924;-72
2022/07/22 03:15:06;;;;;;;0.70;0.10;;;20.70;99.90;;;;;;5072145;28;20449;-73
2022/07/22 03:17:35;;;;;;;0.70;0.10;;;20.80;99.90;;;;;;5072041;28;20472;-73
2022/07/22 03:20:03;;;;;;;0.70;0.20;;;20.70;99.90;;;;;;5060246;28;20450;-72
2022/07/22 03:22:33;;;;;;;0.70;0.10;;;20.70;99.90;;;;;;5051312;28;20457;-72
2022/07/22 03:25:02;;;;;;;0.70;0.10;;;20.80;99.90;;;;;;5052144;28;20897;-74
2022/07/22 03:27:30;;;;;;;0.70;0.10;;;20.80;99.90;;;;;;5067914;28;20469;-72
2022/07/22 03:29:58;;;;;;;0.70;0.10;;;20.80;99.90;;;;;;5072105;28;20460;-72
2022/07/22 03:32:26;;;;;;;0.70;0.10;;;20.80;99.90;;;;;;5071640;28;20449;-74
2022/07/22 03:34:54;;;;;;;0.70;0.10;;;20.80;99.90;;;;;;5071355;28;20871;-74
2022/07/22 03:37:32;;;;;;;0.70;0.10;;;20.90;99.90;;;;;;5071002;28;20476;-73
2022/07/22 03:39:59;;;;;;;0.60;0.10;;;20.90;99.90;;;;;;5071164;28;20449;-73
2022/07/22 03:42:27;;;;;;;0.70;0.10;;;21.00;99.90;;;;;;5071584;28;20456;-74
2022/07/22 03:44:56;;;;;;;0.63;0.10;;;;;;;;;;5071630;28;20741;-74
2022/07/22 03:47:24;;;;;;;0.70;0.10;;;21.10;99.90;;;;;;5071827;28;20484;-74
2022/07/22 03:49:52;;;;;;;0.70;0.20;;;21.10;99.90;;;;;;5071554;28;20450;-72
2022/07/22 03:52:20;;;;;;;0.70;0.20;;;21.10;99.90;;;;;;5073319;28;20477;-71
2022/07/22 03:54:49;;;;;;;0.70;0.10;;;21.10;99.90;;;;;;5061247;28;20485;-72
2022/07/22 03:57:17;;;;;;;0.70;0.10;;;21.10;99.90;;;;;;5051402;28;20565;-72
2022/07/22 03:59:45;;;;;;;0.70;0.10;;;21.20;99.90;;;;;;5051402;28;20820;-74
2022/07/22 04:02:12;;;;;;;0.70;0.10;;;21.20;99.90;;;;;;5051198;28;20811;-74
2022/07/22 04:04:40;;;;;;;0.70;0.10;;;21.20;99.90;;;;;;5052403;28;20442;-73
2022/07/22 04:07:08;;;;;;;0.70;0.20;;;21.10;99.90;;;;;;5055273;28;20915;-73
2022/07/22 04:09:36;;;;;;;0.70;0.10;;;21.10;99.90;;;;;;5072433;28;20444;-73
2022/07/22 04:12:06;;;;;;;0.70;0.20;;;21.20;99.90;;;;;;5075727;28;20484;-72
2022/07/22 04:14:34;;;;;;;0.70;0.20;;;21.20;99.90;;;;;;5078504;28;20448;-72
2022/07/22 04:17:02;;;;;;;0.70;0.10;;;21.20;99.90;;;;;;5075205;28;20548;-72
2022/07/22 04:19:29;;;;;;;0.70;0.10;;;21.20;99.90;;;;;;5075731;28;20449;-74
2022/07/22 04:21:57;;;;;;;0.70;0.20;;;21.20;99.90;;;;;;5071181;28;20488;-72
2022/07/22 04:24:25;;;;;;;0.70;0.10;;;21.20;99.90;;;;;;5055011;28;20449;-72
2022/07/22 04:26:53;;;;;;;0.70;0.10;;;21.30;99.90;;;;;;5055193;28;20474;-72
2022/07/22 04:29:22;;;;;;;0.70;0.20;;;21.30;99.90;;;;;;5071576;28;20449;-72
2022/07/22 04:31:50;;;;;;;0.70;0.10;;;21.30;99.90;;;;;;5069972;28;21048;-74
2022/07/22 04:34:18;;;;;;;0.70;0.10;;;21.30;99.90;;;;;;5071504;28;20489;-74
2022/07/22 04:36:46;;;;;;;0.67;0.10;;;21.40;99.90;;;;;;5074739;28;20469;-73
2022/07/22 04:39:14;;;;;;;0.70;0.13;;;21.40;99.90;;;;;;5075563;28;20515;-73
2022/07/22 04:41:41;;;;;;;0.70;0.20;;;21.40;99.90;;;;;;5072986;28;20480;-73
2022/07/22 04:44:09;;;;;;;0.70;0.20;;;21.40;99.90;;;;;;5074772;28;20525;-73
2022/07/22 04:46:39;;;;;;;0.70;0.10;;;21.40;99.90;;;;;;5074712;28;20855;-72
2022/07/22 04:49:07;;;;;;;0.70;0.17;;;21.40;99.90;;;;;;5071240;28;20554;-73
2022/07/22 04:51:34;;;;;;;0.70;0.10;;;21.40;99.90;;;;;;5073658;28;20480;-74
2022/07/22 04:54:02;;;;;;;0.70;0.10;;;21.50;99.90;;;;;;5074594;28;20452;-72
2022/07/22 04:56:32;;;;;;;0.70;0.10;;;21.50;99.90;;;;;;5071944;28;20564;-73
2022/07/22 04:59:00;;;;;;;0.70;0.10;;;21.40;99.90;;;;;;5071527;28;20548;-73
2022/07/22 05:01:28;;;;;;;0.70;0.10;;;21.40;99.90;;;;;;5074366;28;20434;-73
2022/07/22 05:03:57;;;;;;;0.70;0.10;;;21.40;99.90;;;;;;5074063;28;20457;-72
2022/07/22 05:06:25;;;;;;;0.70;0.17;;;21.40;99.90;;;;;;5075040;28;20829;-72
2022/07/22 05:08:53;;;;;;;0.70;0.10;;;21.40;99.90;;;;;;5073807;28;20441;-74
2022/07/22 05:11:21;;;;;;;0.70;0.20;;;21.40;99.90;;;;;;5074538;28;20514;-74
2022/07/22 05:13:49;;;;;;;0.70;0.10;;;21.40;99.90;;;;;;5074555;28;20442;-73
2022/07/22 05:16:17;;;;;;;0.70;0.10;;;21.40;99.90;;;;;;5074561;28;20469;-73
2022/07/22 05:18:45;;;;;;;0.70;0.10;;;21.40;99.90;;;;;;5074189;28;20457;-73
2022/07/22 05:21:14;;;;;;;0.70;0.10;;;21.40;99.90;;;;;;5087799;28;20956;-72
2022/07/22 05:23:42;;;;;;;0.70;0.10;;;21.40;99.90;;;;;;5089694;28;20956;-73
2022/07/22 05:26:10;;;;;;;0.70;0.20;;;21.40;99.90;;;;;;5080057;28;20549;-74
2022/07/22 05:28:38;;;;;;;0.70;0.20;;;21.40;99.90;;;;;;5074971;28;20445;-73
2022/07/22 05:31:06;;;;;;;0.70;0.10;;;21.40;99.90;;;;;;5074319;28;20483;-74
2022/07/22 05:33:34;;;;;;;0.70;0.10;;;21.40;99.90;;;;;;5065228;28;20937;-75
2022/07/22 05:36:03;;;;;;;0.70;0.10;;;21.50;99.90;;;;;;5064652;28;20448;-74
2022/07/22 05:38:34;;;;;;;0.70;0.10;;;21.50;99.90;;;;;;5054018;28;20454;-76
2022/07/22 05:41:02;;;;;;;0.70;0.10;;;21.50;99.90;;;;;;5066415;28;20450;-72
2022/07/22 05:43:30;;;;;;;1.83;1.73;;;21.50;99.90;;;;;;5069406;28;20444;-72
2022/07/22 05:45:58;;;;;;;0.70;0.10;;;21.60;99.90;;;;;;5072226;28;20444;-73
2022/07/22 05:48:26;;;;;;;0.70;0.20;;;21.60;99.90;;;;;;5074957;28;20445;-72
2022/07/22 05:50:54;;;;;;;0.70;0.10;;;21.60;99.90;;;;;;5094118;28;20425;-74
2022/07/22 05:53:22;;;;;;;0.70;0.10;;;21.60;99.90;;;;;;5093010;28;20846;-73
2022/07/22 05:55:52;;;;;;;0.70;0.10;;;;;;;;;;5090883;28;20444;-71
2022/07/22 05:58:19;;;;;;;0.70;0.20;;;21.60;99.90;;;;;;5066639;28;20434;-75
2022/07/22 06:00:47;;;;;;;0.70;0.20;;;21.70;99.90;;;;;;5071020;28;20457;-75
2022/07/22 06:03:15;;;;;;;0.70;0.20;;;21.70;99.90;;;;;;5067134;28;20469;-75
2022/07/22 06:05:46;;;;;;;0.70;0.30;;;21.70;99.90;;;;;;5062668;28;21026;-75
2022/07/22 06:08:14;;;;;;;0.70;0.10;;;21.70;99.90;;;;;;5068338;28;20478;-74
2022/07/22 06:10:42;;;;;;;0.70;0.10;;;21.70;99.90;;;;;;5066329;28;20452;-74
2022/07/22 06:13:11;;;;;;;0.70;0.10;;;21.80;99.90;;;;;;5053956;28;20814;-74
2022/07/22 06:15:39;;;;;;;0.70;0.20;;;21.80;99.90;;;;;;5066891;28;20454;-71
2022/07/22 06:18:07;;;;;;;0.70;0.10;;;21.80;99.90;;;;;;5069668;28;20461;-72
2022/07/22 06:20:35;;;;;;;0.70;0.10;;;21.90;99.90;;;;;;5070486;28;20453;-72
2022/07/22 06:23:03;;;;;;;0.70;0.10;;;21.90;99.90;;;;;;5071224;28;20446;-72
2022/07/22 06:25:32;;;;;;;0.70;0.10;;;21.90;99.90;;;;;;5066505;28;20445;-74
2022/07/22 06:28:16;;;;;;;0.70;0.10;;;21.90;99.90;;;;;;5069708;28;21011;-73
2022/07/22 06:30:44;;;;;;;0.70;0.20;;;22.00;99.90;;;;;;5052985;28;20449;-73
2022/07/22 06:33:13;;;;;;;0.70;0.20;;;20.90;99.90;;;;;;5057244;28;20485;-72
2022/07/22 06:35:41;;;;;;;0.70;0.10;;;22.00;99.90;;;;;;5063107;28;20446;-73
2022/07/22 06:38:09;;;;;;;0.70;0.10;;;22.00;99.90;;;;;;5051198;28;20893;-71
2022/07/22 06:40:53;;;;;;;0.70;0.20;;;;;;;;;;5066409;28;20549;-71
2022/07/22 06:43:23;;;;;;;0.70;0.13;;;22.00;99.90;;;;;;5067718;28;20948;-72
2022/07/22 06:45:51;;;;;;;0.70;0.10;;;;;;;;;;5072285;28;20885;-71
2022/07/22 06:48:19;;;;;;;0.70;0.20;;;21.80;99.90;;;;;;5053764;28;20450;-72
2022/07/22 06:50:47;;;;;;;0.70;0.10;;;21.80;99.90;;;;;;5052313;28;20443;-73
2022/07/22 06:53:20;;;;;;;0.70;0.20;;;21.80;99.90;;;;;;5056621;28;20530;-73
2022/07/22 06:55:48;;;;;;;0.70;0.13;;;;;;;;;;5065830;28;20548;-73
2022/07/22 06:58:16;;;;;;;0.70;0.10;;;21.80;99.90;;;;;;5066720;28;20528;-73
2022/07/22 07:00:46;;;;;;;0.70;0.20;;;;;;;;;;5072365;28;20544;-72
2022/07/22 07:03:14;;;;;;;0.80;0.40;;;21.90;99.90;;;;;;5070965;28;20453;-74
2022/07/22 07:06:02;;;;;;;0.70;0.10;;;22.00;99.90;;;;;;5067160;28;20464;-73
2022/07/22 07:08:31;;;;;;;0.70;0.10;;;21.90;99.90;;;;;;5068466;28;20468;-71
2022/07/22 07:10:59;;;;;;;0.70;0.13;;;22.10;99.90;;;;;;5070120;28;20811;-73
2022/07/22 07:13:27;;;;;;;0.70;0.10;;;22.20;99.90;;;;;;5072087;28;20512;-73
2022/07/22 07:15:56;;;;;;;0.70;0.10;;;22.30;99.90;;;;;;5072114;28;20430;-74
2022/07/22 07:18:24;;;;;;;0.70;0.10;;;22.30;99.90;;;;;;5071981;28;20477;-72
2022/07/22 07:20:52;;;;;;;0.70;0.20;;;22.30;99.90;;;;;;5072378;28;20746;-73
2022/07/22 07:23:20;;;;;;;0.80;0.40;;;22.30;99.90;;;;;;5065489;28;20471;-73
2022/07/22 07:25:48;;;;;;;0.70;0.20;;;22.40;99.90;;;;;;5063323;28;20995;-72
2022/07/22 07:28:20;;;;;;;0.70;0.10;;;22.40;99.90;;;;;;5074581;28;20440;-72
2022/07/22 07:30:49;;;;;;;0.70;0.10;;;22.30;99.90;;;;;;5072974;28;20476;-72
2022/07/22 07:33:18;;;;;;;0.70;0.10;;;22.40;99.90;;;;;;5071102;28;20855;-71
2022/07/22 07:35:46;;;;;;;18.83;4.77;;;19.80;99.90;;;;;;5062129;28;21055;-73
2022/07/22 07:38:14;;;;;;;0.70;0.20;;;22.60;99.90;;;;;;5070885;28;20532;-73
2022/07/22 07:40:42;;;;;;;0.70;0.10;;;22.60;99.90;;;;;;5076273;28;20473;-73
2022/07/22 07:43:10;;;;;;;1.10;0.30;;;22.70;99.90;;;;;;5075381;28;20459;-74
2022/07/22 07:45:38;;;;;;;0.70;0.20;;;22.80;99.90;;;;;;5070448;28;20461;-74
2022/07/22 07:48:07;;;;;;;0.70;0.20;;;22.90;99.90;;;;;;5068404;28;20511;-73
2022/07/22 07:50:36;;;;;;;0.70;0.20;;;23.00;99.90;;;;;;5067560;28;20556;-71
2022/07/22 07:53:04;;;;;;;0.70;0.10;;;23.00;99.90;;;;;;5067563;28;20474;-74
2022/07/22 07:55:37;;;;;;;0.70;0.10;;;23.00;99.90;;;;;;5074992;28;20449;-74
2022/07/22 07:58:06;;;;;;;2.07;1.47;;;23.00;99.90;;;;;;5075383;28;20870;-74
2022/07/22 08:00:34;;;;;;;0.70;0.30;;;22.90;99.90;;;;;;5075124;28;21034;-74
2022/07/22 08:03:02;;;;;;;0.70;0.10;;;22.80;99.90;;;;;;5076966;28;20473;-75
2022/07/22 08:05:33;;;;;;;0.70;0.10;;;22.70;99.90;;;;;;5077171;28;20492;-73
2022/07/22 08:08:04;;;;;;;4.00;3.80;;;22.70;99.90;;;;;;5076633;28;20462;-75
2022/07/22 08:10:42;;;;;;;0.70;0.20;;;22.70;99.90;;;;;;5078264;28;20437;-73
2022/07/22 08:13:25;;;;;;;0.70;0.10;;;22.80;99.90;;;;;;5075398;28;20500;-74
2022/07/22 08:15:53;;;;;;;0.70;0.10;;;;;;;;;;5082441;28;20440;-73
2022/07/22 08:18:22;;;;;;;0.70;0.10;;;22.80;99.90;;;;;;5082220;28;20536;-75
2022/07/22 08:20:49;;;;;;;0.70;0.10;;;22.90;99.90;;;;;;5078086;28;20766;-73
2022/07/22 08:23:19;;;;;;;0.70;0.10;;;22.80;99.90;;;;;;5077596;28;20532;-73
2022/07/22 08:25:47;;;;;;;0.70;0.30;;;;;;;;;;5077026;28;20540;-74
2022/07/22 08:28:15;;;;;;;0.70;0.20;;;22.90;99.90;;;;;;5076225;28;20476;-74
2022/07/22 08:30:43;;;;;;;0.70;0.10;;;23.10;99.90;;;;;;5076167;28;20465;-74
2022/07/22 08:33:11;;;;;;;0.70;0.20;;;23.10;99.90;;;;;;5076747;28;20481;-74
2022/07/22 08:35:39;;;;;;;0.70;0.10;;;23.30;99.90;;;;;;5075317;28;20449;-73
2022/07/22 08:38:06;;;;;;;0.70;0.20;;;23.40;99.90;;;;;;5075697;28;20461;-73
2022/07/22 08:40:36;;;;;;;0.70;0.20;;;;;;;;;;5076000;28;20453;-75
2022/07/22 08:43:05;;;;;;;0.70;0.20;;;23.40;99.90;;;;;;5077577;28;20441;-74
2022/07/22 08:45:33;;;;;;;0.70;0.13;;;;;;;;;;5078711;28;20445;-74
2022/07/22 08:48:03;;;;;;;0.70;0.13;;;23.50;99.90;;;;;;5082076;28;20470;-74
2022/07/22 08:50:31;;;;;;;0.70;0.10;;;23.50;99.90;;;;;;5081180;28;20468;-74
2022/07/22 08:52:59;;;;;;;0.70;0.10;;;23.60;99.90;;;;;;5081649;28;20968;-74
2022/07/22 08:55:27;;;;;;;0.70;0.20;;;23.60;99.90;;;;;;5079172;28;20551;-75
2022/07/22 08:57:56;;;;;;;0.70;0.20;;;23.60;99.90;;;;;;5077293;28;20495;-74
2022/07/22 09:00:24;;;;;;;0.70;0.10;;;23.70;99.90;;;;;;5076457;28;20477;-74
2022/07/22 09:02:52;;;;;;;0.70;0.20;;;23.80;99.90;;;;;;5074814;28;21057;-74
2022/07/22 09:05:20;;;;;;;0.70;0.10;;;23.70;99.90;;;;;;5074255;28;20448;-75
2022/07/22 09:08:07;;;;;;;0.70;0.20;;;23.80;99.90;;;;;;5074243;28;20876;-75
2022/07/22 09:10:36;;;;;;;0.70;0.20;;;23.70;99.90;;;;;;5074438;28;20487;-74
2022/07/22 09:13:07;;;;;;;0.70;0.20;;;23.80;99.90;;;;;;5074825;28;20477;-75
2022/07/22 09:15:46;;;;;;;0.70;0.20;;;23.80;99.90;;;;;;5074028;28;20442;-74
2022/07/22 09:18:14;;;;;;;0.90;0.40;;;23.80;99.90;;;;;;5077992;28;20991;-75
2022/07/22 09:20:43;;;;;;;0.70;0.10;;;23.90;99.90;;;;;;5073632;28;20450;-75
2022/07/22 09:23:13;;;;;;;0.70;0.20;;;23.80;99.90;;;;;;5074344;28;20449;-75
2022/07/22 09:25:42;;;;;;;0.70;0.20;;;23.90;99.90;;;;;;5074260;28;20529;-74
2022/07/22 09:28:15;;;;;;;0.70;0.10;;;24.00;99.90;;;;;;5074199;28;20457;-75
2022/07/22 09:30:51;;;;;;;0.70;0.20;;;24.00;99.90;;;;;;5074302;28;20437;-74
2022/07/22 09:33:22;;;;;;;0.70;0.10;;;24.10;99.90;;;;;;5074094;28;20874;-75
2022/07/22 09:35:51;;;;;;;0.70;0.10;;;;;;;;;;5069154;28;20485;-76
2022/07/22 09:38:27;;;;;;;0.70;0.20;;;24.20;99.90;;;;;;5073742;28;20453;-74
2022/07/22 09:40:55;;;;;;;0.70;0.10;;;24.20;99.90;;;;;;5072888;28;20445;-75
2022/07/22 09:43:28;;;;;;;0.70;0.10;;;24.20;99.90;;;;;;5073626;28;20477;-76
2022/07/22 09:45:58;;;;;;;0.70;0.10;;;24.40;99.90;;;;;;5073551;28;20445;-76
2022/07/22 09:48:26;;;;;;;0.70;0.20;;;24.40;99.90;;;;;;5074079;28;20444;-75
2022/07/22 09:50:56;;;;;;;0.70;0.20;;;24.40;99.90;;;;;;5073634;28;20478;-75
2022/07/22 09:53:28;;;;;;;0.80;0.60;;;24.50;99.90;;;;;;5069087;28;20449;-75
2022/07/22 09:55:57;;;;;;;0.70;0.10;;;24.50;99.90;;;;;;5053427;28;20450;-74
2022/07/22 09:58:27;;;;;;;0.70;0.20;;;24.70;99.90;;;;;;5053287;28;20457;-75
2022/07/22 10:00:59;;;;;;;0.70;0.20;;;24.60;99.90;;;;;;5062543;28;20465;-76
2022/07/22 10:03:31;;;;;;;0.70;0.10;;;24.70;99.90;;;;;;5070910;28;20437;-74
2022/07/22 10:06:00;;;;;;;0.90;0.60;;;24.80;99.90;;;;;;5072369;28;20453;-76
2022/07/22 10:08:30;;;;;;;0.80;0.43;;;24.80;99.90;;;;;;5073070;28;20899;-75
2022/07/22 10:11:01;;;;;;;0.70;0.20;;;24.80;99.90;;;;;;5073130;28;20499;-75
2022/07/22 10:13:34;;;;;;;0.80;0.30;;;;;;;;;;5073428;28;20464;-76
2022/07/22 10:16:02;;;;;;;0.90;0.20;;;24.90;99.90;;;;;;5073195;28;20441;-73
2022/07/22 10:18:31;;;;;;;0.70;0.10;;;24.90;99.90;;;;;;5073637;28;20446;-74
2022/07/22 10:21:04;;;;;;;0.70;0.10;;;25.10;99.90;;;;;;5073338;28;20446;-75
2022/07/22 10:23:32;;;;;;;0.70;0.10;;;25.20;99.90;;;;;;5072900;28;20461;-73
2022/07/22 10:26:02;;;;;;;0.70;0.20;;;25.20;99.90;;;;;;5073358;28;20445;-74
2022/07/22 10:28:32;;;;;;;0.70;0.10;;;25.30;99.90;;;;;;5073212;28;20524;-75
2022/07/22 10:31:21;;;;;;;0.70;0.10;;;25.50;99.90;;;;;;5072755;28;20460;-74
2022/07/22 10:33:53;;;;;;;0.70;0.20;;;25.50;99.90;;;;;;5073533;28;20434;-74
2022/07/22 10:36:32;;;;;;;0.70;0.10;;;25.60;99.90;;;;;;5072869;28;20478;-73
2022/07/22 10:39:06;;;;;;;0.70;0.10;;;25.60;99.90;;;;;;5072669;28;20503;-74
2022/07/22 10:41:36;;;;;;;0.70;0.10;;;25.70;99.90;;;;;;5072519;28;20442;-76
2022/07/22 10:44:06;;;;;;;0.80;0.60;;;25.80;99.90;;;;;;5072076;28;20850;-75
2022/07/22 10:46:52;;;;;;;0.70;0.13;;;26.00;99.90;;;;;;5072129;28;20461;-74
2022/07/22 10:49:22;;;;;;;0.70;0.20;;;26.00;99.90;;;;;;5072260;28;20866;-75
2022/07/22 10:52:20;;;;;;;0.70;0.10;;;26.10;99.90;;;;;;5072776;28;21017;-76
2022/07/22 10:55:19;;;;;;;1.77;1.67;;;26.20;99.90;;;;;;5060883;28;20544;-74
2022/07/22 10:57:49;;;;;;;0.80;0.20;;;26.30;99.90;;;;;;5072934;28;20548;-76
2022/07/22 11:00:18;;;;;;;0.70;0.10;;;26.30;99.90;;;;;;5073245;28;20818;-77
2022/07/22 11:02:46;;;;;;;0.70;0.20;;;26.50;99.90;;;;;;5073040;28;20468;-76
2022/07/22 11:05:24;;;;;;;0.80;0.50;;;26.50;99.90;;;;;;5072994;28;20952;-75
2022/07/22 11:07:52;;;;;;;0.70;0.10;;;26.70;99.90;;;;;;5073847;28;21022;-76
2022/07/22 11:10:21;;;;;;;0.70;0.20;;;26.70;99.90;;;;;;5073063;28;20939;-74
2022/07/22 11:12:50;;;;;;;0.70;0.30;;;26.80;99.90;;;;;;5074169;28;20436;-76
2022/07/22 11:15:26;;;;;;;0.70;0.10;;;26.90;99.90;;;;;;5076721;28;20477;-75
2022/07/22 11:17:57;;;;;;;0.70;0.20;;;27.00;99.90;;;;;;5076266;28;20473;-76
2022/07/22 11:20:25;;;;;;;0.70;0.10;;;27.10;99.90;;;;;;5072705;28;20547;-74
2022/07/22 11:22:53;;;;;;;0.70;0.20;;;27.00;99.90;;;;;;5072660;28;20457;-75
2022/07/22 11:25:27;;;;;;;0.70;0.13;;;27.10;99.90;;;;;;5072371;28;20804;-75
2022/07/22 11:27:57;;;;;;;0.70;0.20;;;27.20;99.90;;;;;;5072106;28;20964;-76
2022/07/22 11:30:27;;;;;;;0.70;0.20;;;27.20;99.90;;;;;;5072243;28;20617;-74
2022/07/22 11:32:55;;;;;;;0.70;0.10;;;27.30;99.90;;;;;;5072287;28;20533;-74
2022/07/22 11:35:23;;;;;;;4.07;3.80;;;27.40;99.90;;;;;;5072638;28;20560;-75
2022/07/22 11:37:57;;;;;;;0.70;0.10;;;27.50;99.90;;;;;;5072024;28;20462;-75
2022/07/22 11:40:32;;;;;;;0.70;0.20;;;27.50;99.90;;;;;;5072284;28;20445;-75
2022/07/22 11:43:03;;;;;;;0.70;0.10;;;27.60;99.90;;;;;;5072245;28;20527;-75
2022/07/22 11:45:32;;;;;;;0.80;0.40;;;27.60;99.90;;;;;;5072470;28;20453;-74
2022/07/22 11:48:09;;;;;;;0.70;0.20;;;27.50;99.90;;;;;;5072501;28;20465;-75
2022/07/22 11:50:37;;;;;;;0.97;0.70;;;27.40;99.90;;;;;;5073156;28;20487;-75
2022/07/22 11:53:05;;;;;;;0.70;0.20;;;27.30;99.90;;;;;;5073606;28;20466;-76
2022/07/22 11:55:34;;;;;;;0.70;0.20;;;27.40;99.90;;;;;;5073463;28;20483;-75
2022/07/22 11:58:02;;;;;;;2.70;2.00;;;27.40;99.90;;;;;;5073148;28;20475;-76
2022/07/22 12:00:32;;;;;;;0.70;0.10;;;27.40;99.90;;;;;;5073133;28;20536;-75
2022/07/22 12:03:00;;;;;;;0.70;0.20;;;27.50;99.90;;;;;;5072696;28;21034;-76
2022/07/22 12:05:28;;;;;;;13.63;10.70;;;27.60;99.90;;;;;;5071560;28;20484;-76
2022/07/22 12:08:00;;;;;;;0.70;0.20;;;27.70;99.90;;;;;;5071701;28;20461;-75
2022/07/22 12:10:28;;;;;;;1.50;1.27;;;27.70;99.90;;;;;;5071860;28;20470;-74
2022/07/22 12:12:57;;;;;;;0.70;0.20;;;27.80;99.90;;;;;;5072182;28;20948;-74
2022/07/22 12:15:25;;;;;;;0.70;0.30;;;27.90;99.90;;;;;;5071940;28;20484;-75
2022/07/22 12:18:19;;;;;;;0.70;0.10;;;28.00;99.90;;;;;;5071762;28;20543;-74
2022/07/22 12:20:47;;;;;;;0.70;0.20;;;28.00;99.90;;;;;;5072204;28;20520;-75
2022/07/22 12:23:22;;;;;;;0.70;0.20;;;28.00;99.90;;;;;;5072709;28;20461;-75
2022/07/22 12:25:52;;;;;;;0.70;0.10;;;28.00;99.90;;;;;;5073115;28;20484;-76
2022/07/22 12:28:19;;;;;;;0.70;0.17;;;28.00;99.90;;;;;;5075889;28;20442;-76
2022/07/22 12:30:48;;;;;;;0.70;0.20;;;28.10;99.90;;;;;;5077105;28;20471;-76
2022/07/22 12:33:18;;;;;;;0.70;0.10;;;28.20;99.90;;;;;;5074860;28;20958;-75
2022/07/22 12:35:59;;;;;;;0.70;0.10;;;28.30;99.90;;;;;;5074821;28;20963;-75
2022/07/22 12:38:27;;;;;;;0.70;0.20;;;28.30;99.90;;;;;;5074916;28;20441;-76
2022/07/22 12:41:26;;;;;;;0.90;0.47;;;28.30;99.90;;;;;;5074837;28;20445;-76
2022/07/22 12:43:54;;;;;;;0.80;0.20;;;29.10;99.90;;;;;;5075343;28;20433;-75
2022/07/22 12:46:23;;;;;;;0.70;0.10;;;28.60;99.90;;;;;;5075012;28;20548;-75
2022/07/22 12:48:59;;;;;;;0.70;0.17;;;28.70;99.90;;;;;;5075512;28;20445;-75
2022/07/22 12:51:28;;;;;;;0.70;0.20;;;28.70;99.90;;;;;;5075378;28;20552;-75
2022/07/22 12:53:56;;;;;;;0.70;0.37;;;28.80;99.90;;;;;;5075198;28;20467;-76
2022/07/22 12:56:24;;;;;;;0.70;0.10;;;28.80;99.90;;;;;;5074811;28;20489;-75
2022/07/22 12:58:52;;;;;;;0.70;0.20;;;28.80;99.90;;;;;;5074772;28;20793;-75
2022/07/22 13:01:20;;;;;;;0.70;0.13;;;28.80;99.90;;;;;;5074900;28;20929;-75
2022/07/22 13:03:48;;;;;;;0.70;0.20;;;28.80;99.90;;;;;;5074528;28;20545;-75